Cape Town, South Africa

9:21 AM SAST on September 27, 2016 (GMT +0200)
Cape Town International | | Change Station

Elev 138 ft 33.96 °S, 18.60 °E | Updated 21 minutes ago

Scattered Clouds
Scattered Clouds
59 °F
Feels Like 59 °F
N
9
Wind Variable Wind from NW

Today
High -- | Low -- °F
--% Chance of Precip.
Yesterday
High -- | Low -- °F
Precip. -- in
Pressure 29.98 in
Visibility 6.2 miles
Clouds Scattered Clouds 4000 ft
Dew Point 48 °F
Humidity 67%
Rainfall 0.00 in
Snow Depth Not available.
6:27 AM 6:45 PM
Waning Crescent, 13% visible
METAR FACT 270700Z 31008KT 290V360 9999 SCT040 15/09 Q1015 NOSIG
Pressure 29.98 in
Visibility 6.2 miles
Clouds Scattered Clouds 4000 ft
Dew Point 48 °F
Humidity 67%
Rainfall 0.00 in
Snow Depth Not available.
6:27 AM 6:45 PM
Waning Crescent, 13% visible
METAR FACT 270700Z 31008KT 290V360 9999 SCT040 15/09 Q1015 NOSIG

10-Day Weather Forecast

No radar image for this location.
×

Almanac

Astronomy

Sep. 27, 2016 Rise Set
Actual Time
Civil Twilight
Nautical Twilight
Astronomical Twilight
Moon
Length of Visible Light
Length of Day
Tomorrow will be .
, % of the Moon is Illuminated

Today's Extremes

Country Highs Country Lows

Community

WunderPhotos

Upload Photos

1,942,040 photos uploaded!

WunderBlog® & News

Nearby

Air Quality

  Air Quality AQ Index Pollutant
Not available.

Snow Depth

Station Depth Elevation

Earthquake Activity

City Distance Mag. Time & Date
Minimum magnitude displayed is 2.5.

Coastal Water Temperatures

Place Temperature

Stations

Nearby Weather Stations

Station Location Temp. Windchill Dew Point Humidity Wind Precip. Elev Updated Type